Time;durP1;ratioP1;P1;durP2;ratioP2;P2;SDS_P1;SDS_P2;PMS_P1;PMS_P2;Temp;Humidity;BMP_temperature;BMP_pressure;BME280_temperature;BME280_humidity;BME280_pressure;Samples;Min_cycle;Max_cycle;Signal;HPM_P1;HPM_P2
2022/08/25 00:00:16;;;;;;;1.60;1.60;;;26.60;99.90;;;26.87;75.43;101607.41;4824680;29;20437;-86
2022/08/25 00:02:44;;;;;;;1.52;1.52;;;26.50;99.90;;;26.79;75.46;101592.41;4823859;29;20046;-86
2022/08/25 00:05:27;;;;;;;1.50;1.50;;;26.50;99.90;;;26.88;75.77;101604.59;4824378;29;20053;-86
2022/08/25 00:07:59;;;;;;;1.50;1.50;;;26.50;99.90;;;26.68;75.63;101562.31;4824335;29;20050;-85
2022/08/25 00:10:30;;;;;;;1.55;1.55;;;26.60;99.90;;;26.82;75.90;101606.78;4824185;29;20469;-86
2022/08/25 00:12:58;;;;;;;1.42;1.42;;;26.50;99.90;;;26.63;75.74;101583.44;4824524;29;20074;-85
2022/08/25 00:15:27;;;;;;;1.30;1.30;;;26.50;99.90;;;26.84;75.95;101596.69;4824183;29;20134;-86
2022/08/25 00:17:56;;;;;;;1.30;1.30;;;26.50;99.90;;;26.90;75.48;101599.06;4824150;29;20058;-86
2022/08/25 00:20:25;;;;;;;1.58;1.58;;;26.50;99.90;;;26.71;75.81;101580.28;4824458;29;20122;-86
2022/08/25 00:22:54;;;;;;;1.30;1.30;;;26.50;99.90;;;26.85;75.71;101602.03;4824066;29;20043;-86
2022/08/25 00:25:23;;;;;;;1.60;1.60;;;26.50;99.90;;;26.89;75.78;101595.44;4824210;29;20134;-85
2022/08/25 00:27:53;;;;;;;1.45;1.45;;;26.50;99.90;;;26.84;75.54;101592.16;4824039;29;20085;-85
2022/08/25 00:30:21;;;;;;;1.67;1.67;;;26.50;99.90;;;26.70;76.00;101584.84;4824245;29;20076;-86
2022/08/25 00:32:50;;;;;;;1.60;1.60;;;26.40;99.90;;;26.79;75.83;101597.84;4823971;29;20047;-85
2022/08/25 00:35:26;;;;;;;1.38;1.38;;;26.40;99.90;;;26.77;75.83;101590.78;4823990;29;20405;-85
2022/08/25 00:37:55;;;;;;;1.48;1.48;;;26.40;99.90;;;26.74;75.91;101586.41;4824209;29;20053;-85
2022/08/25 00:40:24;;;;;;;1.33;1.33;;;26.40;99.90;;;26.73;76.23;101584.63;4824404;29;20126;-86
2022/08/25 00:42:55;;;;;;;1.60;1.60;;;26.40;99.90;;;26.73;75.99;101583.78;4822948;29;20078;-86
2022/08/25 00:45:24;;;;;;;1.58;1.58;;;26.40;99.90;;;26.63;76.30;101582.56;4823907;29;20068;-86
2022/08/25 00:47:52;;;;;;;1.90;1.80;;;26.30;99.90;;;26.66;76.34;101579.63;4824352;29;20052;-87
2022/08/25 00:50:24;;;;;;;1.40;1.40;;;26.30;99.90;;;26.57;76.72;101572.06;4823865;29;20103;-86
2022/08/25 00:52:56;;;;;;;1.33;1.33;;;26.30;99.90;;;26.53;76.67;101556.91;4824053;29;20114;-85
2022/08/25 00:55:30;;;;;;;1.40;1.40;;;26.30;99.90;;;26.43;76.88;101542.13;4824125;29;20051;-84
2022/08/25 00:58:06;;;;;;;1.40;1.40;;;26.30;99.90;;;26.58;76.58;101562.94;4823802;29;20120;-85
2022/08/25 01:00:39;;;;;;;1.30;1.30;;;26.30;99.90;;;26.51;76.76;101542.56;4823745;29;20046;-85
2022/08/25 01:03:08;;;;;;;1.40;1.40;;;26.30;99.90;;;26.54;76.99;101567.66;4822572;29;20472;-85
2022/08/25 01:05:37;;;;;;;1.70;1.60;;;26.30;99.90;;;26.42;77.07;101564.81;4823989;29;20054;-86
2022/08/25 01:08:08;;;;;;;1.60;1.60;;;26.20;99.90;;;26.30;77.55;101563.72;4823721;29;20050;-85
2022/08/25 01:10:41;;;;;;;2.45;1.77;;;26.00;99.90;;;26.28;78.13;101568.34;4824110;29;20503;-85
2022/08/25 01:13:18;;;;;;;2.75;2.58;;;25.90;99.90;;;26.21;78.28;101564.22;4822356;29;20050;-86
2022/08/25 01:15:48;;;;;;;2.05;1.95;;;25.90;99.90;;;26.01;78.98;101556.34;4825857;29;20051;-84
2022/08/25 01:18:16;;;;;;;1.42;1.42;;;25.70;99.90;;;26.05;79.16;101557.03;4825688;29;20101;-84
2022/08/25 01:20:49;;;;;;;1.98;1.90;;;25.70;99.90;;;26.01;79.32;101547.31;4826749;29;20042;-85
2022/08/25 01:23:18;;;;;;;2.10;1.95;;;25.70;99.90;;;25.94;79.50;101542.25;4826913;29;20062;-84
2022/08/25 01:25:53;;;;;;;1.45;1.45;;;25.70;99.90;;;25.91;79.48;101531.59;4826913;29;20078;-83
2022/08/25 01:28:22;;;;;;;1.83;1.73;;;25.70;99.90;;;25.90;79.49;101521.69;4826555;29;20070;-85
2022/08/25 01:30:51;;;;;;;1.52;1.52;;;25.70;99.90;;;26.00;79.47;101535.59;4826791;29;20133;-86
2022/08/25 01:33:19;;;;;;;1.92;1.83;;;25.70;99.90;;;26.02;79.12;101533.66;4826500;29;20038;-85
2022/08/25 01:35:49;;;;;;;1.55;1.55;;;25.70;99.90;;;26.00;79.26;101540.16;4826725;29;20074;-86
2022/08/25 01:38:19;;;;;;;1.40;1.40;;;25.70;99.90;;;26.03;79.08;101548.13;4825864;29;20046;-67
2022/08/25 01:40:50;;;;;;;2.05;1.95;;;25.70;99.90;;;25.97;79.35;101530.38;4826019;29;20046;-66
2022/08/25 01:43:31;;;;;;;1.40;1.40;;;25.70;99.90;;;26.02;79.15;101536.38;4825764;29;20074;-66
2022/08/25 01:45:59;;;;;;;5.50;3.90;;;25.70;99.90;;;25.97;79.13;101535.78;4825700;29;20074;-67
2022/08/25 01:48:27;;;;;;;1.50;1.50;;;25.70;99.90;;;25.96;79.24;101530.47;4825892;29;20118;-66
2022/08/25 01:50:57;;;;;;;1.60;1.60;;;25.70;99.90;;;26.01;78.98;101531.06;4825549;29;20055;-66
2022/08/25 01:53:29;;;;;;;2.13;2.00;;;25.70;99.90;;;25.97;78.98;101522.22;4825538;29;20508;-66
2022/08/25 01:56:10;;;;;;;1.70;1.70;;;25.70;99.90;;;25.94;79.22;101533.22;4825506;29;20501;-67
2022/08/25 01:58:43;;;;;;;1.60;1.60;;;25.70;99.90;;;25.98;79.02;101523.09;4824458;29;20046;-66
2022/08/25 02:01:17;;;;;;;1.60;1.60;;;25.70;99.90;;;25.92;78.89;101519.78;4824487;29;20459;-67
2022/08/25 02:03:50;;;;;;;1.50;1.50;;;25.70;99.90;;;25.96;78.99;101533.16;4825226;29;20055;-67
2022/08/25 02:06:24;;;;;;;1.80;1.80;;;25.70;99.90;;;25.81;79.25;101524.94;4825690;29;20112;-67
2022/08/25 02:09:00;;;;;;;2.10;2.00;;;25.60;99.90;;;25.76;79.57;101535.16;4825680;29;20058;-67
2022/08/25 02:11:29;;;;;;;2.90;2.70;;;25.50;99.90;;;25.45;79.99;101524.31;4825395;29;20054;-67
2022/08/25 02:13:58;;;;;;;2.60;2.50;;;25.30;99.90;;;25.14;81.66;101521.50;4825719;29;20044;-67
2022/08/25 02:16:30;;;;;;;1.52;1.52;;;25.00;99.90;;;25.35;81.77;101516.72;4825181;29;20087;-67
2022/08/25 02:18:59;;;;;;;2.05;1.95;;;25.00;99.90;;;25.27;81.98;101511.72;4825162;29;20053;-67
2022/08/25 02:21:29;;;;;;;1.60;1.60;;;25.00;99.90;;;25.31;82.09;101532.28;4825620;29;20047;-67
2022/08/25 02:23:58;;;;;;;2.55;2.35;;;25.00;99.90;;;25.14;82.62;101518.78;4824359;29;20396;-67
2022/08/25 02:26:27;;;;;;;2.43;2.33;;;24.90;99.90;;;25.08;82.89;101513.69;4824726;29;20111;-67
2022/08/25 02:28:56;;;;;;;2.03;1.92;;;24.80;99.90;;;25.14;82.91;101512.50;4825082;29;20062;-67
2022/08/25 02:31:26;;;;;;;2.33;2.22;;;24.80;99.90;;;25.20;82.97;101518.47;4825168;29;20056;-67
2022/08/25 02:33:56;;;;;;;2.35;2.25;;;24.90;99.90;;;25.13;82.99;101498.06;4824956;29;20501;-67
2022/08/25 02:36:24;;;;;;;2.58;2.47;;;24.80;99.90;;;25.22;82.93;101505.72;4824904;29;20055;-67
2022/08/25 02:38:54;;;;;;;3.83;3.53;;;24.90;99.90;;;25.10;82.80;101495.53;4824715;29;20052;-67
2022/08/25 02:41:25;;;;;;;1.80;1.80;;;24.90;99.90;;;25.15;82.85;101501.56;4825026;29;20042;-67
2022/08/25 02:44:00;;;;;;;2.30;2.20;;;24.90;99.90;;;25.25;82.72;101491.97;4825068;29;20131;-67
2022/08/25 02:46:29;;;;;;;2.30;2.20;;;24.90;99.90;;;25.24;82.48;101498.34;4824696;29;20054;-67
2022/08/25 02:48:58;;;;;;;3.72;2.60;;;25.00;99.90;;;25.26;82.30;101495.56;4825233;29;20093;-67
2022/08/25 02:51:28;;;;;;;1.67;1.67;;;25.00;99.90;;;25.24;82.26;101482.09;4824841;29;20187;-67
2022/08/25 02:54:00;;;;;;;;;;;25.00;99.90;;;25.12;82.09;101450.28;4825345;29;20050;-67
2022/08/25 02:56:31;;;;;;;2.33;2.22;;;25.00;99.90;;;25.31;81.94;101477.22;4824646;29;19925;-67
2022/08/25 02:59:00;;;;;;;2.38;2.28;;;25.00;99.90;;;25.13;81.81;101454.72;4824481;29;20083;-67
2022/08/25 03:01:29;;;;;;;2.10;2.00;;;25.00;99.90;;;25.30;81.50;101470.91;4824629;29;20111;-68
2022/08/25 03:03:58;;;;;;;2.15;2.05;;;25.00;99.90;;;25.09;81.58;101468.56;4824700;29;20061;-67
2022/08/25 03:06:27;;;;;;;1.80;1.80;;;24.90;99.90;;;25.09;82.01;101472.09;4823495;29;20461;-67
2022/08/25 03:08:56;;;;;;;1.95;1.85;;;24.80;99.90;;;25.15;81.83;101481.72;4824799;29;20054;-67
2022/08/25 03:11:26;;;;;;;2.80;2.53;;;24.80;99.90;;;25.14;81.67;101475.47;4824670;29;20047;-67
2022/08/25 03:13:55;;;;;;;1.70;1.70;;;24.80;99.90;;;25.12;81.49;101476.50;4824675;29;20050;-67
2022/08/25 03:16:26;;;;;;;1.73;1.73;;;24.90;99.90;;;24.94;81.05;101441.34;4824390;29;20050;-67
2022/08/25 03:18:55;;;;;;;2.78;2.67;;;24.80;99.90;;;24.92;81.26;101472.16;4824667;29;20052;-67
2022/08/25 03:21:25;;;;;;;2.38;2.28;;;24.70;99.90;;;24.72;81.67;101464.22;4824493;29;20051;-67
2022/08/25 03:23:53;;;;;;;2.05;1.98;;;24.50;99.90;;;24.53;82.30;101433.66;4824548;29;20060;-67
2022/08/25 03:29:12;;;;;;;1.90;1.85;;;24.40;99.90;;;24.55;82.77;101461.50;4824639;29;20054;-66
2022/08/25 03:31:42;;;;;;;3.90;3.53;;;24.30;99.90;;;24.49;83.17;101454.59;4824444;29;20129;-67
2022/08/25 03:34:11;;;;;;;2.58;2.47;;;24.30;99.90;;;24.16;83.44;101421.19;4825052;29;20046;-66
2022/08/25 03:36:39;;;;;;;2.30;2.20;;;24.10;99.90;;;24.36;83.53;101445.38;4824063;29;20050;-67
2022/08/25 03:39:08;;;;;;;2.28;2.17;;;24.10;99.90;;;24.33;83.62;101436.53;4823984;29;20073;-67
2022/08/25 03:41:36;;;;;;;3.00;2.85;;;24.10;99.90;;;23.84;83.52;101333.63;4824356;29;20297;-67
2022/08/25 03:44:08;;;;;;;3.72;3.42;;;24.10;99.90;;;24.12;82.94;101398.84;4824105;29;20062;-67
2022/08/25 03:46:42;;;;;;;3.38;3.20;;;24.00;99.90;;;24.34;82.98;101431.06;4824155;29;20047;-67
2022/08/25 03:49:14;;;;;;;1.75;1.75;;;24.10;99.90;;;24.38;82.81;101429.94;4824410;29;20462;-67
2022/08/25 03:51:46;;;;;;;2.80;2.70;;;24.10;99.90;;;24.18;82.85;101417.44;4824126;29;20054;-67
2022/08/25 03:54:17;;;;;;;2.55;2.45;;;24.00;99.90;;;24.12;82.84;101425.88;4824011;29;20047;-67
2022/08/25 03:56:46;;;;;;;2.92;2.80;;;23.90;99.90;;;23.77;83.47;101405.13;4824105;29;20047;-67
2022/08/25 03:59:14;;;;;;;2.40;2.30;;;23.60;99.90;;;23.35;84.56;101374.84;4823921;29;20099;-67
2022/08/25 04:01:46;;;;;;;3.22;3.03;;;23.50;99.90;;;23.56;84.56;101408.03;4823878;29;20061;-66
2022/08/25 04:04:24;;;;;;;3.15;2.97;;;23.30;99.90;;;23.46;85.10;101398.66;4824200;29;20054;-66
2022/08/25 04:06:52;;;;;;;2.85;2.75;;;23.30;99.90;;;23.56;85.32;101417.00;4822790;29;20420;-64
2022/08/25 04:09:22;;;;;;;2.63;2.53;;;23.20;99.90;;;23.48;84.97;101405.69;4822639;29;20164;-65
2022/08/25 04:11:50;;;;;;;2.35;2.25;;;23.10;99.90;;;23.55;84.63;101415.28;4823885;29;20055;-66
2022/08/25 04:14:23;;;;;;;2.63;2.53;;;23.20;99.90;;;23.26;84.52;101378.88;4823732;29;20078;-65
2022/08/25 04:16:53;;;;;;;2.10;2.00;;;23.10;99.90;;;23.48;84.13;101405.69;4823700;29;20038;-64
2022/08/25 04:19:22;;;;;;;3.25;3.15;;;23.20;99.90;;;23.57;83.74;101410.69;4823927;29;20038;-64
2022/08/25 04:21:56;;;;;;;2.45;2.35;;;23.20;99.90;;;23.32;83.52;101380.41;4823788;29;20084;-65
2022/08/25 04:24:24;;;;;;;2.38;2.28;;;23.20;99.90;;;23.52;83.40;101411.84;4823445;29;20051;-65
2022/08/25 04:26:53;;;;;;;2.40;2.30;;;23.20;99.90;;;23.67;82.96;101408.38;4823372;29;20093;-63
2022/08/25 04:29:24;;;;;;;2.25;2.15;;;23.30;99.90;;;23.36;82.10;101348.72;4823362;29;20057;-64
2022/08/25 04:31:55;;;;;;;2.33;2.22;;;23.40;99.90;;;23.49;81.79;101385.84;4823525;29;20058;-64
2022/08/25 04:34:26;;;;;;;2.15;2.05;;;23.40;99.90;;;23.67;81.58;101414.69;4822132;29;20198;-64
2022/08/25 04:37:01;;;;;;;2.10;2.00;;;23.40;99.90;;;23.72;81.13;101412.59;4823860;29;20115;-64
2022/08/25 04:39:31;;;;;;;2.03;1.92;;;23.40;99.90;;;23.56;80.52;101379.19;4823546;29;20085;-64
2022/08/25 04:42:00;;;;;;;2.30;2.20;;;23.50;99.90;;;23.65;80.19;101402.19;4823193;29;20144;-64
2022/08/25 04:44:30;;;;;;;2.25;2.15;;;23.40;99.90;;;23.75;80.27;101412.44;4823249;29;20111;-64
2022/08/25 04:47:00;;;;;;;;;;;23.40;99.90;;;23.89;79.53;101415.34;4823699;29;20425;-64
2022/08/25 04:49:29;;;;;;;2.70;2.60;;;23.60;99.90;;;23.83;79.05;101415.63;4824990;29;20341;-64
2022/08/25 04:51:58;;;;;;;2.40;2.30;;;23.60;99.90;;;23.70;79.53;101422.63;4826458;29;20050;-64
2022/08/25 04:54:27;;;;;;;2.13;2.03;;;23.50;99.90;;;23.52;79.60;101392.94;4826586;29;20058;-63
2022/08/25 04:56:55;;;;;;;2.25;2.15;;;23.30;99.90;;;23.66;79.22;101417.44;4827078;29;20077;-64
2022/08/25 04:59:26;;;;;;;2.35;2.25;;;23.30;99.90;;;23.58;79.45;101415.09;4826293;29;20556;-64
2022/08/25 05:02:01;;;;;;;2.17;2.08;;;23.20;99.90;;;23.58;79.23;101416.94;4826363;29;20446;-64
2022/08/25 05:04:34;;;;;;;2.72;2.63;;;23.20;99.90;;;23.43;79.15;101388.84;4826522;29;20530;-64
2022/08/25 05:07:04;;;;;;;2.30;2.20;;;23.20;99.90;;;23.38;79.85;101406.25;4826053;29;20051;-64
2022/08/25 05:09:33;;;;;;;2.25;2.15;;;23.10;99.90;;;23.51;79.27;101416.38;4825171;29;20058;-65
2022/08/25 05:12:02;;;;;;;2.35;2.25;;;23.20;99.90;;;23.56;78.81;101413.41;4826399;29;20458;-64
2022/08/25 05:14:31;;;;;;;1.90;1.80;;;23.20;99.90;;;22.99;78.39;101298.34;4826197;29;20038;-66
2022/08/25 05:17:02;;;;;;;3.15;2.95;;;23.30;99.90;;;23.78;78.08;101423.09;4826447;29;20042;-64
2022/08/25 05:19:30;;;;;;;3.37;3.20;;;23.40;99.90;;;23.59;77.55;101392.56;4826679;29;20047;-65
2022/08/25 05:21:59;;;;;;;2.00;1.90;;;23.50;99.90;;;23.77;77.51;101421.34;4825991;29;20326;-64
2022/08/25 05:24:28;;;;;;;2.53;2.33;;;23.50;99.90;;;23.80;77.14;101420.31;4826013;29;20050;-63
2022/08/25 05:26:57;;;;;;;2.08;1.98;;;23.50;99.90;;;23.91;76.76;101426.94;4826038;29;20047;-64
2022/08/25 05:29:26;;;;;;;2.40;2.30;;;23.50;99.90;;;23.96;75.89;101426.72;4825969;29;20058;-64
2022/08/25 05:31:55;;;;;;;2.25;2.15;;;23.60;99.90;;;24.04;75.66;101424.53;4826524;29;20054;-64
2022/08/25 05:34:25;;;;;;;12.95;3.40;;;23.70;99.90;;;23.75;75.88;101428.66;4826504;29;20054;-64
2022/08/25 05:36:53;;;;;;;2.38;2.28;;;23.50;99.90;;;23.91;75.48;101428.75;4826200;29;20050;-63
2022/08/25 05:39:22;;;;;;;2.00;1.90;;;23.60;99.90;;;23.76;76.01;101421.44;4824864;29;20466;-63
2022/08/25 05:41:54;;;;;;;2.25;2.15;;;23.50;99.90;;;23.88;75.50;101435.22;4825962;29;20047;-64
2022/08/25 05:44:22;;;;;;;2.17;2.08;;;23.50;99.90;;;23.81;75.43;101431.06;4825772;29;20046;-64
2022/08/25 05:46:51;;;;;;;3.03;2.90;;;23.50;99.90;;;23.83;75.46;101431.84;4825628;29;20069;-64
2022/08/25 05:49:19;;;;;;;2.40;2.30;;;23.50;99.90;;;23.78;75.73;101433.03;4826185;29;20054;-64
2022/08/25 05:51:49;;;;;;;1.98;1.88;;;23.40;99.90;;;23.81;75.17;101431.06;4825942;29;20078;-64
2022/08/25 05:54:18;;;;;;;2.40;2.30;;;23.40;99.90;;;23.60;75.69;101426.72;4825684;29;20081;-63
2022/08/25 05:56:46;;;;;;;2.38;2.28;;;23.30;99.90;;;23.56;75.66;101408.91;4824637;29;20085;-64
2022/08/25 05:59:15;;;;;;;4.43;3.30;;;23.40;99.90;;;23.73;75.19;101430.56;4825627;29;20101;-63
2022/08/25 06:04:30;;;;;;;2.10;2.00;;;23.40;99.90;;;23.67;75.57;101425.47;4825542;29;20091;-64
2022/08/25 06:06:59;;;;;;;2.10;2.00;;;23.30;99.90;;;23.76;74.82;101432.25;4825281;29;20077;-64
2022/08/25 06:09:28;;;;;;;2.72;2.58;;;23.40;99.90;;;23.83;75.10;101431.84;4824152;29;20398;-64
2022/08/25 06:11:56;;;;;;;2.53;2.42;;;23.50;99.90;;;23.98;74.42;101425.66;4825192;29;20060;-64
2022/08/25 06:14:26;;;;;;;3.03;2.83;;;23.60;99.90;;;23.79;74.59;101416.75;4825487;29;20061;-64
2022/08/25 06:16:56;;;;;;;2.45;2.35;;;23.50;99.90;;;23.78;74.45;101411.41;4825501;29;20111;-64
2022/08/25 06:19:25;;;;;;;2.20;2.10;;;23.50;99.90;;;23.67;74.94;101413.78;4825039;29;20481;-64
2022/08/25 06:21:56;;;;;;;2.40;2.30;;;23.40;99.90;;;23.52;75.31;101387.53;4825412;29;20082;-66
2022/08/25 06:24:27;;;;;;;2.20;2.10;;;23.30;99.90;;;23.69;75.14;101420.00;4825120;29;20509;-65
2022/08/25 06:26:57;;;;;;;3.33;3.17;;;23.40;99.90;;;23.05;75.14;101333.13;4825653;29;20081;-65
2022/08/25 06:29:26;;;;;;;2.57;2.47;;;23.30;99.90;;;23.79;75.05;101414.03;4825067;29;20069;-65
2022/08/25 06:31:55;;;;;;;2.83;2.65;;;23.40;99.90;;;23.79;74.65;101403.22;4824947;29;20057;-65
2022/08/25 06:34:24;;;;;;;2.20;2.10;;;23.50;99.90;;;23.92;74.83;101419.72;4824998;29;20058;-64
2022/08/25 06:36:53;;;;;;;3.20;3.00;;;23.60;99.90;;;23.40;74.80;101329.59;4824788;29;20426;-64
2022/08/25 06:39:22;;;;;;;2.50;2.40;;;23.70;99.90;;;24.16;75.01;101423.88;4824664;29;20417;-64
2022/08/25 06:41:55;;;;;;;2.10;2.00;;;23.80;99.90;;;24.02;75.47;101410.22;4824899;29;20073;-63
2022/08/25 06:44:26;;;;;;;14.77;3.60;;;23.70;99.90;;;24.26;74.46;101422.47;4823694;29;20051;-63
2022/08/25 06:46:54;;;;;;;3.10;2.97;;;23.90;99.90;;;24.08;74.18;101389.13;4824943;29;20098;-65
2022/08/25 06:49:26;;;;;;;3.00;2.90;;;23.90;99.90;;;24.26;74.57;101422.47;4823559;29;20072;-65
2022/08/25 06:51:56;;;;;;;2.15;2.05;;;23.90;99.90;;;24.22;74.79;101428.09;4825168;29;20404;-67
2022/08/25 06:54:25;;;;;;;2.30;2.20;;;23.90;99.90;;;24.30;74.65;101415.06;4824650;29;20051;-66
2022/08/25 06:56:55;;;;;;;4.63;3.35;;;23.90;99.90;;;24.02;74.39;101378.63;4824713;29;20063;-65
2022/08/25 06:59:25;;;;;;;4.35;3.28;;;23.80;99.90;;;24.03;74.14;101391.22;4825042;29;20570;-67
2022/08/25 07:01:59;;;;;;;2.80;2.60;;;23.80;99.90;;;24.31;73.73;101420.41;4824734;29;20050;-64
2022/08/25 07:04:30;;;;;;;9.25;8.40;;;23.90;99.90;;;24.32;74.52;101424.84;4825170;29;20066;-65
2022/08/25 07:06:59;;;;;;;3.33;3.15;;;23.90;99.90;;;24.42;74.05;101407.19;4824938;29;20085;-65
2022/08/25 07:09:27;;;;;;;3.17;2.97;;;24.10;99.90;;;23.99;74.54;101340.03;4824304;29;20107;-65
2022/08/25 07:11:57;;;;;;;18.15;3.60;;;24.00;99.90;;;24.14;74.35;101379.81;4823148;29;20050;-66
2022/08/25 07:14:26;;;;;;;4.72;3.97;;;23.90;99.90;;;24.45;73.65;101411.56;4824377;29;20114;-67
2022/08/25 07:16:54;;;;;;;6.60;3.70;;;23.90;99.90;;;24.50;71.88;101413.06;4824268;29;20145;-63
2022/08/25 07:19:23;;;;;;;3.92;3.60;;;24.00;99.90;;;24.65;68.26;101412.25;4824191;29;20058;-63
2022/08/25 07:21:53;;;;;;;5.53;3.83;;;24.20;99.90;;;24.79;67.36;101412.41;4824090;29;20104;-66
2022/08/25 07:24:23;;;;;;;3.72;3.40;;;24.30;99.90;;;24.90;67.12;101406.38;4824163;29;20054;-65
2022/08/25 07:26:52;;;;;;;3.47;3.22;;;24.50;99.90;;;25.16;65.98;101413.97;4824125;29;20073;-66
2022/08/25 07:29:25;;;;;;;3.97;3.67;;;24.60;99.90;;;25.19;67.15;101408.34;4824037;29;20378;-65
2022/08/25 07:32:01;;;;;;;2.10;2.00;;;24.70;99.90;;;25.38;65.84;101419.00;4824073;29;20046;-68
2022/08/25 07:37:22;;;;;;;4.80;4.40;;;24.80;99.90;;;25.28;62.80;101418.66;4824157;29;20051;-66
2022/08/25 07:40:13;;;;;;;;;;;24.80;99.90;;;25.42;64.15;101404.38;4824270;29;20112;-66
2022/08/25 07:42:42;;;;;;;4.20;3.85;;;25.00;99.90;;;25.43;62.57;101407.00;4823948;29;19985;-67
2022/08/25 07:45:14;;;;;;;5.18;4.57;;;25.00;99.90;;;25.68;62.85;101420.00;4824102;29;20451;-67
2022/08/25 07:47:48;;;;;;;5.90;4.40;;;25.20;99.90;;;25.47;60.48;101403.16;4822777;29;20051;-67
2022/08/25 07:50:20;;;;;;;3.88;3.58;;;25.20;99.90;;;25.74;60.78;101422.38;4822860;29;20077;-67
2022/08/25 07:52:50;;;;;;;10.15;3.90;;;25.30;99.90;;;25.79;58.83;101413.00;4823959;29;20061;-67
2022/08/25 07:55:23;;;;;;;1.80;1.77;;;25.40;99.90;;;26.02;59.36;101402.59;4822263;29;20157;-66
2022/08/25 07:57:52;;;;;;;3.33;3.05;;;25.60;99.90;;;26.26;58.20;101418.34;4822688;29;20042;-67
2022/08/25 08:00:28;;;;;;;2.45;2.35;;;25.90;99.90;;;26.52;56.89;101433.00;4823695;29;20051;-67
2022/08/25 08:02:57;;;;;;;2.95;2.75;;;26.10;99.90;;;26.55;56.39;101427.41;4823537;29;20389;-67
2022/08/25 08:05:27;;;;;;;3.13;2.83;;;26.20;99.90;;;26.69;56.59;101432.88;4823895;29;20050;-67
2022/08/25 08:07:56;;;;;;;2.55;2.45;;;26.40;99.90;;;26.49;55.29;101428.66;4823842;29;20059;-67
2022/08/25 08:10:26;;;;;;;2.42;2.33;;;26.20;99.90;;;26.45;54.73;101389.09;4823928;29;20050;-67
2022/08/25 08:13:15;;;;;;;3.38;2.95;;;26.30;99.90;;;26.94;53.24;101446.69;4823679;29;20130;-66
2022/08/25 08:15:47;;;;;;;2.50;2.30;;;26.60;99.90;;;27.03;53.30;101445.22;4823679;29;20409;-67
2022/08/25 08:18:16;;;;;;;2.50;2.25;;;26.70;99.90;;;26.87;52.55;101428.16;4823751;29;20050;-67
2022/08/25 08:20:47;;;;;;;2.00;1.90;;;26.60;99.90;;;27.23;53.62;101445.72;4822392;29;20497;-67
2022/08/25 08:23:18;;;;;;;13.45;3.80;;;26.80;99.90;;;27.17;51.35;101440.66;4823718;29;20061;-66
2022/08/25 08:25:47;;;;;;;3.83;3.42;;;26.80;99.90;;;27.31;53.27;101448.78;4827089;29;20043;-67
2022/08/25 08:28:15;;;;;;;4.15;3.08;;;26.90;99.90;;;27.46;50.51;101438.81;4827281;29;20081;-67
2022/08/25 08:30:44;;;;;;;6.28;3.65;;;27.10;99.90;;;27.33;51.65;101446.03;4827436;29;20191;-67
2022/08/25 08:33:24;;;;;;;2.42;2.33;;;27.00;99.90;;;27.50;51.38;101460.25;4826973;29;20115;-67
2022/08/25 08:36:01;;;;;;;5.85;3.95;;;27.10;99.90;;;27.56;49.99;101448.97;4827006;29;20436;-66
2022/08/25 08:38:33;;;;;;;5.88;2.72;;;27.10;99.90;;;27.54;49.97;101423.75;4827375;29;20050;-67
2022/08/25 08:44:40;;;;;;;2.33;2.22;;;27.40;99.90;;;28.14;49.41;101459.59;4827425;29;20067;-67
2022/08/25 08:47:20;;;;;;;3.35;3.05;;;27.80;99.90;;;27.79;48.88;101446.56;4827301;29;20054;-67
2022/08/25 08:50:02;;;;;;;2.72;2.53;;;27.60;99.90;;;27.58;50.15;101446.16;4827376;29;20120;-67
2022/08/25 08:52:40;;;;;;;2.40;2.20;;;27.30;99.90;;;27.93;49.97;101455.56;4826892;29;20137;-67
2022/08/25 08:55:32;;;;;;;2.67;2.55;;;27.40;99.90;;;28.03;49.40;101447.69;4826605;29;20141;-67
2022/08/25 08:58:06;;;;;;;2.58;2.40;;;27.70;99.90;;;27.99;49.20;101452.44;4826594;29;20047;-66
2022/08/25 09:00:41;;;;;;;1.92;1.83;;;27.60;99.90;;;27.87;49.67;101449.66;4826801;29;20050;-66
2022/08/25 09:03:34;;;;;;;2.88;2.67;;;27.40;99.90;;;27.99;50.58;101443.44;4826501;29;20451;-67
2022/08/25 09:06:08;;;;;;;2.60;2.47;;;27.50;99.90;;;28.25;50.77;101450.69;4826541;29;20107;-66
2022/08/25 09:08:38;;;;;;;3.17;2.33;;;27.80;99.90;;;28.15;49.37;101434.13;4826610;29;20413;-67
2022/08/25 09:11:22;;;;;;;2.13;2.03;;;27.90;99.90;;;28.24;49.89;101448.97;4826426;29;20473;-66
2022/08/25 09:14:26;;;;;;;2.97;2.78;;;27.90;99.90;;;27.83;48.82;101429.06;4826420;29;20053;-67
2022/08/25 09:17:05;;;;;;;2.17;2.08;;;27.60;99.90;;;28.05;48.63;101441.16;4826916;29;20508;-67
2022/08/25 09:20:04;;;;;;;2.67;2.47;;;27.60;99.90;;;28.06;49.47;101442.03;4825569;29;20054;-67
2022/08/25 09:23:00;;;;;;;4.30;2.95;;;27.70;99.90;;;27.88;48.73;101350.75;4826106;29;20055;-66
2022/08/25 09:25:43;;;;;;;2.25;2.15;;;28.00;99.90;;;28.68;49.60;101444.03;4826367;29;20137;-67
2022/08/25 09:28:29;;;;;;;1.50;1.50;;;28.30;99.90;;;28.69;50.10;101440.31;4826092;29;20106;-68
2022/08/25 09:31:01;;;;;;;2.28;2.17;;;28.30;99.90;;;28.60;46.84;101402.84;4826322;29;20129;-67
2022/08/25 09:33:33;;;;;;;2.00;1.90;;;28.40;99.90;;;29.15;46.77;101437.94;4826066;29;20054;-67
2022/08/25 09:36:04;;;;;;;1.20;1.20;;;28.70;99.90;;;29.26;44.61;101440.75;4824691;29;20054;-67
2022/08/25 09:38:38;;;;;;;1.92;1.83;;;28.90;99.90;;;29.45;44.01;101445.72;4825955;29;20050;-67
2022/08/25 09:41:10;;;;;;;1.35;1.35;;;29.10;99.90;;;29.73;43.70;101431.81;4824725;29;20056;-68
2022/08/25 09:43:43;;;;;;;1.88;1.77;;;29.30;99.90;;;29.89;43.25;101435.13;4825788;29;20046;-67
2022/08/25 09:46:14;;;;;;;2.13;2.03;;;29.60;99.90;;;29.85;43.15;101439.94;4825952;29;20075;-67
2022/08/25 09:48:49;;;;;;;1.70;1.60;;;29.60;99.90;;;30.04;43.42;101439.44;4825535;29;20470;-67
2022/08/25 09:51:29;;;;;;;1.20;1.20;;;29.70;99.90;;;30.31;42.43;101426.41;4826013;29;20423;-67
2022/08/25 09:54:23;;;;;;;1.35;1.35;;;30.00;99.90;;;30.75;41.88;101447.50;4826195;29;20516;-67
2022/08/25 09:57:29;;;;;;;1.10;1.10;;;30.40;99.90;;;30.62;42.22;101353.84;4825661;29;20046;-67
2022/08/25 10:00:10;;;;;;;1.15;1.15;;;30.80;99.90;;;31.34;41.33;101438.09;4824590;29;20141;-67
2022/08/25 10:02:41;;;;;;;1.00;1.00;;;31.00;99.90;;;31.69;40.35;101437.94;4825305;29;20047;-66
2022/08/25 10:05:22;;;;;;;2.10;1.90;;;31.40;99.90;;;31.18;40.46;101414.88;4825434;29;20050;-67
2022/08/25 10:07:56;;;;;;;1.20;1.20;;;31.10;99.90;;;30.91;39.46;101372.38;4825144;29;20118;-66
2022/08/25 10:10:33;;;;;;;0.90;0.90;;;31.30;99.90;;;31.65;40.11;101428.28;4825780;29;20057;-67
2022/08/25 10:13:02;;;;;;;0.98;0.98;;;31.40;99.90;;;31.90;39.27;101417.00;4825683;29;20062;-67
2022/08/25 10:15:36;;;;;;;0.90;0.90;;;31.70;99.90;;;32.21;39.09;101440.78;4825304;29;20050;-67
2022/08/25 10:18:24;;;;;;;0.80;0.80;;;32.00;99.90;;;32.22;38.68;101395.09;4825304;29;20053;-67
2022/08/25 10:21:10;;;;;;;0.90;0.90;;;32.20;99.90;;;32.70;36.26;101418.25;4825254;29;20106;-67
2022/08/25 10:23:43;;;;;;;1.10;1.10;;;32.50;99.90;;;32.29;36.73;101308.69;4825306;29;20042;-67
2022/08/25 10:26:31;;;;;;;1.10;1.10;;;32.70;99.90;;;32.79;34.75;101434.75;4825303;29;20069;-67
2022/08/25 10:29:10;;;;;;;;;;;32.70;99.90;;;32.72;35.60;101408.91;4825660;29;20462;-67
2022/08/25 10:31:50;;;;;;;0.93;0.93;;;32.70;99.90;;;31.65;34.60;101198.44;4824985;29;19932;-67
2022/08/25 10:34:39;;;;;;;1.00;1.00;;;32.80;99.90;;;32.79;34.43;101417.47;4824929;29;20416;-67
2022/08/25 10:37:24;;;;;;;1.00;1.00;;;32.70;98.50;;;32.78;35.14;101391.03;4824172;29;20054;-67
2022/08/25 10:40:13;;;;;;;0.90;0.90;;;32.70;99.90;;;32.99;35.40;101378.19;4824948;29;20083;-67
2022/08/25 10:42:58;;;;;;;1.00;1.00;;;32.90;99.90;;;33.32;34.52;101394.31;4824771;29;20082;-67
2022/08/25 10:45:46;;;;;;;0.98;0.98;;;33.20;99.90;;;33.28;35.36;101389.25;4825369;29;20054;-67